Terminal Aerodrome Forecast
Issued by NWS

Home | Current Version | Previous Version | Text Only | Print | Product List | Glossary On
Versions: 1 2 3 4 5 6 7 8 9 10 11 12 13 14 15 16 17
259
FTUS46 KSGX 101933 AAA
TAFSNA
TAF AMD
KSNA 101933Z 1020/1118 22007KT P6SM OVC020
      TEMPO 1021/1023 SCT020
     FM110200 VRB06KT 4SM -DZ BR OVC017=

USA.gov is the U.S. government's official web portal to all federal, state and local government web resources and services.